sensor_id;sensor_type;location;lat;lon;timestamp;pressure;altitude;pressure_sealevel;temperature;humidity
63663;BME280;49815;51.618;0.336;2023-02-13T00:01:27;102856.85;;;7.36;44.57
63663;BME280;49815;51.618;0.336;2023-02-13T00:03:52;102855.07;;;7.31;44.63
63663;BME280;49815;51.618;0.336;2023-02-13T00:06:18;102852.18;;;7.02;44.55
63663;BME280;49815;51.618;0.336;2023-02-13T00:08:43;102851.80;;;7.28;44.65
63663;BME280;49815;51.618;0.336;2023-02-13T00:11:09;102846.89;;;7.09;44.76
63663;BME280;49815;51.618;0.336;2023-02-13T00:13:34;102847.26;;;6.83;44.91
63663;BME280;49815;51.618;0.336;2023-02-13T00:16:01;102842.09;;;7.28;44.56
63663;BME280;49815;51.618;0.336;2023-02-13T00:18:25;102839.68;;;7.36;44.54
63663;BME280;49815;51.618;0.336;2023-02-13T00:20:57;102837.54;;;7.12;44.77
63663;BME280;49815;51.618;0.336;2023-02-13T00:23:15;102833.96;;;7.28;44.83
63663;BME280;49815;51.618;0.336;2023-02-13T00:25:41;102834.59;;;6.97;44.67
63663;BME280;49815;51.618;0.336;2023-02-13T00:28:06;102836.44;;;6.89;44.93
63663;BME280;49815;51.618;0.336;2023-02-13T00:30:32;102831.04;;;7.27;44.65
63663;BME280;49815;51.618;0.336;2023-02-13T00:32:58;102830.30;;;6.92;44.83
63663;BME280;49815;51.618;0.336;2023-02-13T00:35:23;102829.27;;;6.80;44.99
63663;BME280;49815;51.618;0.336;2023-02-13T00:37:49;102826.29;;;7.22;44.82
63663;BME280;49815;51.618;0.336;2023-02-13T00:40:14;102822.97;;;7.37;44.34
63663;BME280;49815;51.618;0.336;2023-02-13T00:42:40;102820.36;;;7.13;44.02
63663;BME280;49815;51.618;0.336;2023-02-13T00:45:06;102823.99;;;7.18;44.60
63663;BME280;49815;51.618;0.336;2023-02-13T00:47:30;102822.00;;;7.20;44.52
63663;BME280;49815;51.618;0.336;2023-02-13T00:49:56;102823.00;;;6.80;44.67
63663;BME280;49815;51.618;0.336;2023-02-13T00:52:21;102819.86;;;7.19;44.39
63663;BME280;49815;51.618;0.336;2023-02-13T00:54:46;102825.09;;;7.15;44.56
63663;BME280;49815;51.618;0.336;2023-02-13T00:57:11;102824.72;;;7.28;44.54
63663;BME280;49815;51.618;0.336;2023-02-13T00:59:37;102825.69;;;7.57;44.29
63663;BME280;49815;51.618;0.336;2023-02-13T01:02:02;102827.90;;;7.40;44.23
63663;BME280;49815;51.618;0.336;2023-02-13T01:04:28;102828.92;;;7.31;44.07
63663;BME280;49815;51.618;0.336;2023-02-13T01:06:54;102826.92;;;7.23;44.30
63663;BME280;49815;51.618;0.336;2023-02-13T01:09:19;102825.25;;;7.16;44.21
63663;BME280;49815;51.618;0.336;2023-02-13T01:11:45;102824.53;;;7.35;44.40
63663;BME280;49815;51.618;0.336;2023-02-13T01:14:10;102824.95;;;7.33;44.53
63663;BME280;49815;51.618;0.336;2023-02-13T01:16:35;102828.24;;;6.85;44.53
63663;BME280;49815;51.618;0.336;2023-02-13T01:19:01;102820.86;;;7.06;44.71
63663;BME280;49815;51.618;0.336;2023-02-13T01:21:26;102821.34;;;6.86;44.94
63663;BME280;49815;51.618;0.336;2023-02-13T01:23:52;102825.46;;;7.22;44.52
63663;BME280;49815;51.618;0.336;2023-02-13T01:26:19;102828.34;;;7.03;44.79
63663;BME280;49815;51.618;0.336;2023-02-13T01:28:44;102827.93;;;7.52;44.30
63663;BME280;49815;51.618;0.336;2023-02-13T01:31:08;102827.44;;;7.19;44.66
63663;BME280;49815;51.618;0.336;2023-02-13T01:33:33;102825.65;;;7.21;44.26
63663;BME280;49815;51.618;0.336;2023-02-13T01:35:58;102831.67;;;7.05;44.70
63663;BME280;49815;51.618;0.336;2023-02-13T01:38:25;102831.78;;;7.08;44.74
63663;BME280;49815;51.618;0.336;2023-02-13T01:40:52;102827.78;;;7.14;44.29
63663;BME280;49815;51.618;0.336;2023-02-13T01:43:15;102830.92;;;7.06;44.46
63663;BME280;49815;51.618;0.336;2023-02-13T01:45:41;102828.26;;;6.75;44.99
63663;BME280;49815;51.618;0.336;2023-02-13T01:48:10;102829.43;;;6.97;44.66
63663;BME280;49815;51.618;0.336;2023-02-13T01:50:34;102829.99;;;7.01;44.56
63663;BME280;49815;51.618;0.336;2023-02-13T01:53:01;102825.97;;;7.21;44.30
63663;BME280;49815;51.618;0.336;2023-02-13T01:55:23;102826.17;;;7.13;44.27
63663;BME280;49815;51.618;0.336;2023-02-13T01:57:53;102826.98;;;6.95;44.24
63663;BME280;49815;51.618;0.336;2023-02-13T02:00:15;102826.92;;;6.97;44.33
63663;BME280;49815;51.618;0.336;2023-02-13T02:02:44;102826.49;;;7.16;44.30
63663;BME280;49815;51.618;0.336;2023-02-13T02:05:05;102830.76;;;6.80;43.91
63663;BME280;49815;51.618;0.336;2023-02-13T02:07:30;102830.62;;;7.03;44.04
63663;BME280;49815;51.618;0.336;2023-02-13T02:09:57;102824.71;;;7.08;43.84
63663;BME280;49815;51.618;0.336;2023-02-13T02:12:24;102819.03;;;7.05;43.80
63663;BME280;49815;51.618;0.336;2023-02-13T02:14:46;102812.39;;;7.24;43.72
63663;BME280;49815;51.618;0.336;2023-02-13T02:17:11;102809.03;;;7.23;43.84
63663;BME280;49815;51.618;0.336;2023-02-13T02:19:40;102807.71;;;7.11;43.60
63663;BME280;49815;51.618;0.336;2023-02-13T02:22:22;102805.52;;;7.23;43.68
63663;BME280;49815;51.618;0.336;2023-02-13T02:24:46;102800.15;;;7.03;43.91
63663;BME280;49815;51.618;0.336;2023-02-13T02:27:09;102799.37;;;7.15;43.74
63663;BME280;49815;51.618;0.336;2023-02-13T02:34:16;102799.87;;;6.82;44.31
63663;BME280;49815;51.618;0.336;2023-02-13T02:36:45;102796.45;;;7.15;43.96
63663;BME280;49815;51.618;0.336;2023-02-13T02:39:07;102791.69;;;7.22;43.51
63663;BME280;49815;51.618;0.336;2023-02-13T02:41:37;102785.11;;;7.27;43.39
63663;BME280;49815;51.618;0.336;2023-02-13T02:43:58;102781.53;;;7.47;43.94
63663;BME280;49815;51.618;0.336;2023-02-13T02:46:26;102779.51;;;6.87;43.86
63663;BME280;49815;51.618;0.336;2023-02-13T02:48:48;102776.72;;;6.82;43.96
63663;BME280;49815;51.618;0.336;2023-02-13T02:51:13;102778.88;;;7.25;43.70
63663;BME280;49815;51.618;0.336;2023-02-13T02:53:39;102774.77;;;6.91;43.75
63663;BME280;49815;51.618;0.336;2023-02-13T02:56:05;102776.66;;;6.77;43.84
63663;BME280;49815;51.618;0.336;2023-02-13T02:58:31;102777.10;;;7.49;43.27
63663;BME280;49815;51.618;0.336;2023-02-13T03:00:52;102778.22;;;7.46;43.34
63663;BME280;49815;51.618;0.336;2023-02-13T03:03:18;102781.59;;;7.44;43.05
63663;BME280;49815;51.618;0.336;2023-02-13T03:05:43;102782.62;;;7.16;43.47
63663;BME280;49815;51.618;0.336;2023-02-13T03:08:07;102782.48;;;7.57;42.98
63663;BME280;49815;51.618;0.336;2023-02-13T03:10:35;102785.02;;;7.47;43.46
63663;BME280;49815;51.618;0.336;2023-02-13T03:13:02;102782.99;;;7.21;43.41
63663;BME280;49815;51.618;0.336;2023-02-13T03:15:25;102781.53;;;7.62;42.66
63663;BME280;49815;51.618;0.336;2023-02-13T03:17:48;102776.53;;;7.67;43.04
63663;BME280;49815;51.618;0.336;2023-02-13T03:20:22;102775.21;;;7.59;43.35
63663;BME280;49815;51.618;0.336;2023-02-13T03:22:47;102775.92;;;7.43;43.01
63663;BME280;49815;51.618;0.336;2023-02-13T03:25:11;102775.40;;;7.10;43.43
63663;BME280;49815;51.618;0.336;2023-02-13T03:27:36;102774.66;;;7.30;43.07
63663;BME280;49815;51.618;0.336;2023-02-13T03:30:00;102771.89;;;7.74;43.18
63663;BME280;49815;51.618;0.336;2023-02-13T03:32:27;102771.33;;;7.49;42.86
63663;BME280;49815;51.618;0.336;2023-02-13T03:34:53;102770.27;;;7.58;43.12
63663;BME280;49815;51.618;0.336;2023-02-13T03:37:13;102765.26;;;7.43;42.96
63663;BME280;49815;51.618;0.336;2023-02-13T03:39:45;102765.67;;;7.37;42.47
63663;BME280;49815;51.618;0.336;2023-02-13T03:42:05;102763.79;;;7.39;42.44
63663;BME280;49815;51.618;0.336;2023-02-13T03:44:31;102764.89;;;7.36;42.45
63663;BME280;49815;51.618;0.336;2023-02-13T03:46:56;102765.37;;;7.38;42.57
63663;BME280;49815;51.618;0.336;2023-02-13T03:49:21;102765.73;;;7.48;42.36
63663;BME280;49815;51.618;0.336;2023-02-13T03:51:49;102764.64;;;7.84;42.24
63663;BME280;49815;51.618;0.336;2023-02-13T03:54:16;102760.81;;;7.28;42.84
63663;BME280;49815;51.618;0.336;2023-02-13T03:56:38;102763.76;;;7.68;43.01
63663;BME280;49815;51.618;0.336;2023-02-13T03:59:01;102766.32;;;7.75;43.22
63663;BME280;49815;51.618;0.336;2023-02-13T04:01:27;102769.03;;;7.74;43.52
63663;BME280;49815;51.618;0.336;2023-02-13T04:03:56;102770.94;;;7.66;43.89
63663;BME280;49815;51.618;0.336;2023-02-13T04:06:19;102770.38;;;7.47;43.87
63663;BME280;49815;51.618;0.336;2023-02-13T04:08:42;102770.32;;;7.70;43.85
63663;BME280;49815;51.618;0.336;2023-02-13T04:11:11;102768.81;;;7.53;43.63
63663;BME280;49815;51.618;0.336;2023-02-13T04:13:34;102772.03;;;7.96;43.16
63663;BME280;49815;51.618;0.336;2023-02-13T04:16:00;102769.24;;;7.53;43.65
63663;BME280;49815;51.618;0.336;2023-02-13T04:18:26;102770.95;;;7.38;43.31
63663;BME280;49815;51.618;0.336;2023-02-13T04:20:49;102775.91;;;7.67;43.13
63663;BME280;49815;51.618;0.336;2023-02-13T04:23:14;102777.31;;;7.47;42.89
63663;BME280;49815;51.618;0.336;2023-02-13T04:25:42;102775.55;;;7.69;43.37
63663;BME280;49815;51.618;0.336;2023-02-13T04:28:06;102774.56;;;7.94;43.38
63663;BME280;49815;51.618;0.336;2023-02-13T04:30:32;102772.37;;;7.58;43.29
63663;BME280;49815;51.618;0.336;2023-02-13T04:32:56;102768.31;;;7.49;43.51
63663;BME280;49815;51.618;0.336;2023-02-13T04:35:22;102768.91;;;7.71;42.81
63663;BME280;49815;51.618;0.336;2023-02-13T04:37:48;102766.73;;;7.61;43.11
63663;BME280;49815;51.618;0.336;2023-02-13T04:40:14;102764.29;;;7.48;43.22
63663;BME280;49815;51.618;0.336;2023-02-13T04:42:39;102761.39;;;7.66;43.59
63663;BME280;49815;51.618;0.336;2023-02-13T04:45:05;102761.95;;;7.54;43.07
63663;BME280;49815;51.618;0.336;2023-02-13T04:47:30;102763.55;;;7.49;43.12
63663;BME280;49815;51.618;0.336;2023-02-13T04:49:55;102760.48;;;7.39;42.90
63663;BME280;49815;51.618;0.336;2023-02-13T04:52:21;102756.59;;;7.64;43.30
63663;BME280;49815;51.618;0.336;2023-02-13T04:54:46;102756.92;;;7.68;43.03
63663;BME280;49815;51.618;0.336;2023-02-13T04:57:12;102758.00;;;7.39;43.50
63663;BME280;49815;51.618;0.336;2023-02-13T04:59:37;102753.33;;;7.40;43.28
63663;BME280;49815;51.618;0.336;2023-02-13T05:02:03;102752.34;;;7.13;43.18
63663;BME280;49815;51.618;0.336;2023-02-13T05:04:28;102754.50;;;7.43;43.15
63663;BME280;49815;51.618;0.336;2023-02-13T05:06:53;102756.00;;;7.64;43.29
63663;BME280;49815;51.618;0.336;2023-02-13T05:09:18;102755.23;;;7.66;43.35
63663;BME280;49815;51.618;0.336;2023-02-13T05:11:44;102754.75;;;7.84;43.35
63663;BME280;49815;51.618;0.336;2023-02-13T05:14:10;102754.68;;;7.64;43.61
63663;BME280;49815;51.618;0.336;2023-02-13T05:16:35;102753.38;;;7.44;43.36
63663;BME280;49815;51.618;0.336;2023-02-13T05:19:01;102753.03;;;7.53;43.05
63663;BME280;49815;51.618;0.336;2023-02-13T05:21:27;102749.27;;;7.38;42.94
63663;BME280;49815;51.618;0.336;2023-02-13T05:23:52;102750.95;;;7.70;43.08
63663;BME280;49815;51.618;0.336;2023-02-13T05:26:18;102748.84;;;7.55;43.16
63663;BME280;49815;51.618;0.336;2023-02-13T05:28:43;102746.40;;;7.18;43.16
63663;BME280;49815;51.618;0.336;2023-02-13T05:31:09;102743.65;;;7.41;42.58
63663;BME280;49815;51.618;0.336;2023-02-13T05:33:34;102740.77;;;7.72;42.79
63663;BME280;49815;51.618;0.336;2023-02-13T05:36:00;102738.73;;;7.26;42.65
63663;BME280;49815;51.618;0.336;2023-02-13T05:38:26;102738.62;;;7.61;43.03
63663;BME280;49815;51.618;0.336;2023-02-13T05:40:51;102736.04;;;7.42;43.07
63663;BME280;49815;51.618;0.336;2023-02-13T05:43:18;102737.81;;;7.43;42.75
63663;BME280;49815;51.618;0.336;2023-02-13T05:45:43;102739.81;;;7.37;43.03
63663;BME280;49815;51.618;0.336;2023-02-13T05:48:08;102736.18;;;7.47;42.80
63663;BME280;49815;51.618;0.336;2023-02-13T05:50:34;102737.54;;;7.30;42.89
63663;BME280;49815;51.618;0.336;2023-02-13T05:52:59;102736.34;;;7.13;43.01
63663;BME280;49815;51.618;0.336;2023-02-13T05:55:24;102736.33;;;7.02;43.43
63663;BME280;49815;51.618;0.336;2023-02-13T05:57:51;102738.32;;;7.25;43.34
63663;BME280;49815;51.618;0.336;2023-02-13T06:00:16;102742.83;;;7.42;43.47
63663;BME280;49815;51.618;0.336;2023-02-13T06:02:40;102744.50;;;7.12;43.40
63663;BME280;49815;51.618;0.336;2023-02-13T06:05:06;102741.46;;;7.16;43.19
63663;BME280;49815;51.618;0.336;2023-02-13T06:07:30;102738.01;;;7.47;43.43
63663;BME280;49815;51.618;0.336;2023-02-13T06:09:56;102737.00;;;7.23;43.14
63663;BME280;49815;51.618;0.336;2023-02-13T06:12:21;102735.53;;;7.17;43.31
63663;BME280;49815;51.618;0.336;2023-02-13T06:14:46;102736.84;;;7.28;43.44
63663;BME280;49815;51.618;0.336;2023-02-13T06:17:12;102736.16;;;7.27;43.27
63663;BME280;49815;51.618;0.336;2023-02-13T06:19:37;102736.82;;;7.29;43.64
63663;BME280;49815;51.618;0.336;2023-02-13T06:22:03;102740.89;;;7.33;43.81
63663;BME280;49815;51.618;0.336;2023-02-13T06:24:28;102740.07;;;7.52;43.32
63663;BME280;49815;51.618;0.336;2023-02-13T06:26:54;102735.09;;;7.37;43.86
63663;BME280;49815;51.618;0.336;2023-02-13T06:29:20;102737.32;;;7.26;43.60
63663;BME280;49815;51.618;0.336;2023-02-13T06:31:46;102735.71;;;7.05;43.52
63663;BME280;49815;51.618;0.336;2023-02-13T06:34:11;102731.37;;;6.81;43.45
63663;BME280;49815;51.618;0.336;2023-02-13T06:36:37;102729.97;;;7.25;44.19
63663;BME280;49815;51.618;0.336;2023-02-13T06:39:02;102732.78;;;7.32;43.94
63663;BME280;49815;51.618;0.336;2023-02-13T06:41:28;102733.45;;;7.35;43.93
63663;BME280;49815;51.618;0.336;2023-02-13T06:43:52;102736.11;;;7.40;44.09
63663;BME280;49815;51.618;0.336;2023-02-13T06:46:18;102734.72;;;7.04;44.20
63663;BME280;49815;51.618;0.336;2023-02-13T06:48:43;102733.81;;;7.30;43.92
63663;BME280;49815;51.618;0.336;2023-02-13T06:51:09;102734.78;;;6.99;44.29
63663;BME280;49815;51.618;0.336;2023-02-13T06:53:35;102735.44;;;6.73;44.72
63663;BME280;49815;51.618;0.336;2023-02-13T06:56:03;102733.48;;;6.64;44.62
63663;BME280;49815;51.618;0.336;2023-02-13T06:58:25;102730.96;;;6.23;45.30
63663;BME280;49815;51.618;0.336;2023-02-13T07:00:51;102732.86;;;5.91;45.70
63663;BME280;49815;51.618;0.336;2023-02-13T07:03:16;102735.85;;;5.66;46.12
63663;BME280;49815;51.618;0.336;2023-02-13T07:05:42;102740.18;;;5.52;46.42
63663;BME280;49815;51.618;0.336;2023-02-13T07:08:07;102741.96;;;5.65;46.74
63663;BME280;49815;51.618;0.336;2023-02-13T07:10:33;102739.79;;;5.51;46.44
63663;BME280;49815;51.618;0.336;2023-02-13T07:12:58;102744.97;;;5.32;46.61
63663;BME280;49815;51.618;0.336;2023-02-13T07:15:23;102747.72;;;5.09;46.99
63663;BME280;49815;51.618;0.336;2023-02-13T07:17:54;102748.70;;;5.06;46.85
63663;BME280;49815;51.618;0.336;2023-02-13T07:20:15;102750.73;;;4.78;46.88
63663;BME280;49815;51.618;0.336;2023-02-13T07:22:40;102748.44;;;4.61;47.23
63663;BME280;49815;51.618;0.336;2023-02-13T07:25:07;102744.42;;;4.50;47.45
63663;BME280;49815;51.618;0.336;2023-02-13T07:27:32;102746.37;;;4.53;47.24
63663;BME280;49815;51.618;0.336;2023-02-13T07:29:58;102748.95;;;5.21;46.75
63663;BME280;49815;51.618;0.336;2023-02-13T07:32:24;102749.48;;;4.89;47.21
63663;BME280;49815;51.618;0.336;2023-02-13T07:34:49;102752.85;;;4.35;47.11
63663;BME280;49815;51.618;0.336;2023-02-13T07:37:15;102752.83;;;4.74;47.15
63663;BME280;49815;51.618;0.336;2023-02-13T07:39:40;102751.77;;;4.76;47.29
63663;BME280;49815;51.618;0.336;2023-02-13T07:42:05;102749.38;;;4.67;46.82
63663;BME280;49815;51.618;0.336;2023-02-13T07:44:31;102749.92;;;4.82;47.22
63663;BME280;49815;51.618;0.336;2023-02-13T07:46:56;102751.24;;;4.77;47.24
63663;BME280;49815;51.618;0.336;2023-02-13T07:49:21;102750.10;;;4.17;47.13
63663;BME280;49815;51.618;0.336;2023-02-13T07:51:47;102749.36;;;4.96;47.01
63663;BME280;49815;51.618;0.336;2023-02-13T07:54:13;102750.11;;;4.86;47.49
63663;BME280;49815;51.618;0.336;2023-02-13T07:56:38;102753.32;;;4.70;47.30
63663;BME280;49815;51.618;0.336;2023-02-13T07:59:04;102756.46;;;5.05;47.20
63663;BME280;49815;51.618;0.336;2023-02-13T08:01:29;102763.15;;;4.81;47.29
63663;BME280;49815;51.618;0.336;2023-02-13T08:03:54;102764.43;;;5.05;47.33
63663;BME280;49815;51.618;0.336;2023-02-13T08:06:21;102764.97;;;4.91;47.25
63663;BME280;49815;51.618;0.336;2023-02-13T08:08:46;102763.95;;;4.78;47.26
63663;BME280;49815;51.618;0.336;2023-02-13T08:11:22;102764.24;;;4.91;47.08
63663;BME280;49815;51.618;0.336;2023-02-13T08:13:38;102762.65;;;5.13;46.84
63663;BME280;49815;51.618;0.336;2023-02-13T08:16:03;102763.51;;;5.26;46.84
63663;BME280;49815;51.618;0.336;2023-02-13T08:18:28;102760.19;;;5.32;46.84
63663;BME280;49815;51.618;0.336;2023-02-13T08:20:53;102759.90;;;5.85;46.59
63663;BME280;49815;51.618;0.336;2023-02-13T08:23:19;102757.92;;;5.89;46.72
63663;BME280;49815;51.618;0.336;2023-02-13T08:25:44;102754.67;;;6.03;46.46
63663;BME280;49815;51.618;0.336;2023-02-13T08:28:09;102753.12;;;5.99;46.19
63663;BME280;49815;51.618;0.336;2023-02-13T08:30:35;102749.59;;;6.56;46.20
63663;BME280;49815;51.618;0.336;2023-02-13T08:33:00;102744.40;;;6.33;46.27
63663;BME280;49815;51.618;0.336;2023-02-13T08:35:26;102742.35;;;6.80;45.99
63663;BME280;49815;51.618;0.336;2023-02-13T08:37:52;102743.65;;;6.30;46.01
63663;BME280;49815;51.618;0.336;2023-02-13T08:40:17;102740.00;;;6.68;45.88
63663;BME280;49815;51.618;0.336;2023-02-13T08:42:42;102744.10;;;6.58;45.94
63663;BME280;49815;51.618;0.336;2023-02-13T08:45:08;102743.15;;;6.81;45.76
63663;BME280;49815;51.618;0.336;2023-02-13T08:47:32;102744.89;;;7.03;45.53
63663;BME280;49815;51.618;0.336;2023-02-13T08:49:58;102740.54;;;6.97;45.22
63663;BME280;49815;51.618;0.336;2023-02-13T08:52:24;102740.58;;;7.29;45.33
63663;BME280;49815;51.618;0.336;2023-02-13T08:54:49;102742.64;;;7.47;45.10
63663;BME280;49815;51.618;0.336;2023-02-13T08:57:15;102738.13;;;7.24;45.49
63663;BME280;49815;51.618;0.336;2023-02-13T08:59:40;102737.09;;;7.26;45.79
63663;BME280;49815;51.618;0.336;2023-02-13T09:02:05;102738.34;;;7.05;45.55
63663;BME280;49815;51.618;0.336;2023-02-13T09:04:31;102738.11;;;7.67;45.49
63663;BME280;49815;51.618;0.336;2023-02-13T09:06:57;102733.62;;;7.19;45.44
63663;BME280;49815;51.618;0.336;2023-02-13T09:09:22;102732.64;;;7.40;45.39
63663;BME280;49815;51.618;0.336;2023-02-13T09:11:47;102731.25;;;7.08;45.61
63663;BME280;49815;51.618;0.336;2023-02-13T09:14:13;102728.12;;;7.18;45.53
63663;BME280;49815;51.618;0.336;2023-02-13T09:16:38;102723.42;;;6.97;46.16
63663;BME280;49815;51.618;0.336;2023-02-13T09:19:03;102717.79;;;7.29;45.88
63663;BME280;49815;51.618;0.336;2023-02-13T09:21:28;102721.86;;;7.63;45.66
63663;BME280;49815;51.618;0.336;2023-02-13T09:23:53;102721.27;;;7.78;45.02
63663;BME280;49815;51.618;0.336;2023-02-13T09:26:19;102719.37;;;7.90;45.12
63663;BME280;49815;51.618;0.336;2023-02-13T09:28:44;102718.59;;;7.21;45.52
63663;BME280;49815;51.618;0.336;2023-02-13T09:31:12;102715.63;;;7.45;45.42
63663;BME280;49815;51.618;0.336;2023-02-13T09:33:35;102719.31;;;7.58;45.23
63663;BME280;49815;51.618;0.336;2023-02-13T09:36:04;102717.14;;;7.78;44.84
63663;BME280;49815;51.618;0.336;2023-02-13T09:38:26;102710.42;;;8.04;44.72
63663;BME280;49815;51.618;0.336;2023-02-13T09:40:55;102712.90;;;7.95;45.04
63663;BME280;49815;51.618;0.336;2023-02-13T09:43:25;102707.93;;;8.08;44.81
63663;BME280;49815;51.618;0.336;2023-02-13T09:45:43;102709.88;;;8.11;44.65
63663;BME280;49815;51.618;0.336;2023-02-13T09:48:11;102711.05;;;7.99;44.64
63663;BME280;49815;51.618;0.336;2023-02-13T09:50:33;102708.50;;;8.03;44.86
63663;BME280;49815;51.618;0.336;2023-02-13T09:53:00;102707.43;;;8.22;44.50
63663;BME280;49815;51.618;0.336;2023-02-13T09:55:30;102708.72;;;8.11;44.54
63663;BME280;49815;51.618;0.336;2023-02-13T09:57:55;102710.21;;;8.06;44.23
63663;BME280;49815;51.618;0.336;2023-02-13T10:00:20;102705.41;;;8.29;44.28
63663;BME280;49815;51.618;0.336;2023-02-13T10:02:52;102705.20;;;8.47;43.96
63663;BME280;49815;51.618;0.336;2023-02-13T10:05:16;102707.02;;;8.75;43.60
63663;BME280;49815;51.618;0.336;2023-02-13T10:07:38;102704.59;;;8.94;43.34
63663;BME280;49815;51.618;0.336;2023-02-13T10:10:01;102703.45;;;8.59;43.62
63663;BME280;49815;51.618;0.336;2023-02-13T10:12:36;102702.99;;;8.77;43.65
63663;BME280;49815;51.618;0.336;2023-02-13T10:14:53;102703.50;;;8.95;43.44
63663;BME280;49815;51.618;0.336;2023-02-13T10:17:16;102703.64;;;8.65;43.41
63663;BME280;49815;51.618;0.336;2023-02-13T10:19:41;102703.33;;;8.92;42.91
63663;BME280;49815;51.618;0.336;2023-02-13T10:22:08;102703.97;;;9.12;43.34
63663;BME280;49815;51.618;0.336;2023-02-13T10:24:34;102704.59;;;9.49;42.77
63663;BME280;49815;51.618;0.336;2023-02-13T10:26:57;102708.33;;;9.38;42.59
63663;BME280;49815;51.618;0.336;2023-02-13T10:29:24;102704.99;;;9.16;42.35
63663;BME280;49815;51.618;0.336;2023-02-13T10:31:48;102708.74;;;9.80;42.63
63663;BME280;49815;51.618;0.336;2023-02-13T10:34:15;102706.09;;;9.88;42.25
63663;BME280;49815;51.618;0.336;2023-02-13T10:36:42;102705.81;;;10.12;42.04
63663;BME280;49815;51.618;0.336;2023-02-13T10:39:17;102698.18;;;10.32;41.97
63663;BME280;49815;51.618;0.336;2023-02-13T10:41:39;102705.26;;;10.08;41.59
63663;BME280;49815;51.618;0.336;2023-02-13T10:44:07;102704.43;;;10.08;41.10
63663;BME280;49815;51.618;0.336;2023-02-13T10:46:24;102706.83;;;10.24;41.32
63663;BME280;49815;51.618;0.336;2023-02-13T10:48:56;102708.01;;;9.77;41.63
63663;BME280;49815;51.618;0.336;2023-02-13T10:51:16;102707.80;;;9.66;42.59
63663;BME280;49815;51.618;0.336;2023-02-13T10:53:48;102701.94;;;10.27;42.26
63663;BME280;49815;51.618;0.336;2023-02-13T10:56:11;102701.00;;;10.31;41.78
63663;BME280;49815;51.618;0.336;2023-02-13T10:58:35;102696.28;;;10.13;41.51
63663;BME280;49815;51.618;0.336;2023-02-13T11:00:55;102696.10;;;10.27;41.59
63663;BME280;49815;51.618;0.336;2023-02-13T11:03:21;102701.38;;;10.56;41.33
63663;BME280;49815;51.618;0.336;2023-02-13T11:05:43;102696.90;;;10.71;40.94
63663;BME280;49815;51.618;0.336;2023-02-13T11:08:16;102698.74;;;10.80;41.04
63663;BME280;49815;51.618;0.336;2023-02-13T11:10:34;102698.76;;;10.94;40.57
63663;BME280;49815;51.618;0.336;2023-02-13T11:15:27;102698.11;;;11.14;40.83
63663;BME280;49815;51.618;0.336;2023-02-13T11:17:51;102693.65;;;10.71;41.02
63663;BME280;49815;51.618;0.336;2023-02-13T11:20:27;102693.86;;;10.94;41.23
63663;BME280;49815;51.618;0.336;2023-02-13T11:22:41;102692.42;;;10.55;40.35
63663;BME280;49815;51.618;0.336;2023-02-13T11:25:16;102693.70;;;10.87;40.75
63663;BME280;49815;51.618;0.336;2023-02-13T11:27:33;102687.22;;;11.05;40.60
63663;BME280;49815;51.618;0.336;2023-02-13T11:29:58;102682.23;;;10.93;40.15
63663;BME280;49815;51.618;0.336;2023-02-13T11:32:24;102681.54;;;11.09;40.56
63663;BME280;49815;51.618;0.336;2023-02-13T11:34:48;102678.96;;;11.01;40.59
63663;BME280;49815;51.618;0.336;2023-02-13T11:37:18;102674.71;;;10.82;40.40
63663;BME280;49815;51.618;0.336;2023-02-13T11:39:39;102668.83;;;10.72;40.75
63663;BME280;49815;51.618;0.336;2023-02-13T11:42:11;102661.66;;;10.53;40.94
63663;BME280;49815;51.618;0.336;2023-02-13T11:44:31;102661.60;;;11.02;40.51
63663;BME280;49815;51.618;0.336;2023-02-13T11:46:57;102660.24;;;11.34;40.14
63663;BME280;49815;51.618;0.336;2023-02-13T11:49:22;102659.88;;;11.06;40.52
63663;BME280;49815;51.618;0.336;2023-02-13T11:51:48;102655.49;;;11.19;40.48
63663;BME280;49815;51.618;0.336;2023-02-13T11:54:25;102653.62;;;11.59;40.37
63663;BME280;49815;51.618;0.336;2023-02-13T11:59:02;102652.31;;;11.00;40.78
63663;BME280;49815;51.618;0.336;2023-02-13T12:01:27;102649.79;;;11.03;40.61
63663;BME280;49815;51.618;0.336;2023-02-13T12:04:03;102652.18;;;11.19;41.08
63663;BME280;49815;51.618;0.336;2023-02-13T12:06:18;102652.70;;;11.14;40.66
63663;BME280;49815;51.618;0.336;2023-02-13T12:08:47;102647.42;;;11.14;41.10
63663;BME280;49815;51.618;0.336;2023-02-13T12:11:20;102644.61;;;11.17;41.37
63663;BME280;49815;51.618;0.336;2023-02-13T12:13:37;102640.19;;;11.06;40.88
63663;BME280;49815;51.618;0.336;2023-02-13T12:16:03;102638.52;;;11.40;41.23
63663;BME280;49815;51.618;0.336;2023-02-13T12:18:28;102637.26;;;11.38;40.75
63663;BME280;49815;51.618;0.336;2023-02-13T12:20:56;102637.51;;;11.20;40.82
63663;BME280;49815;51.618;0.336;2023-02-13T12:23:26;102640.13;;;11.58;40.47
63663;BME280;49815;51.618;0.336;2023-02-13T12:25:53;102636.53;;;11.80;40.88
63663;BME280;49815;51.618;0.336;2023-02-13T12:28:12;102631.85;;;11.70;40.38
63663;BME280;49815;51.618;0.336;2023-02-13T12:30:42;102631.95;;;11.87;40.66
63663;BME280;49815;51.618;0.336;2023-02-13T12:33:07;102630.08;;;11.54;40.72
63663;BME280;49815;51.618;0.336;2023-02-13T12:35:35;102626.71;;;11.27;41.03
63663;BME280;49815;51.618;0.336;2023-02-13T12:37:56;102624.65;;;11.41;40.77
63663;BME280;49815;51.618;0.336;2023-02-13T12:42:46;102626.61;;;11.80;40.58
63663;BME280;49815;51.618;0.336;2023-02-13T12:45:17;102625.14;;;11.68;41.20
63663;BME280;49815;51.618;0.336;2023-02-13T12:47:35;102624.15;;;11.89;41.19
63663;BME280;49815;51.618;0.336;2023-02-13T12:50:06;102619.45;;;11.74;41.05
63663;BME280;49815;51.618;0.336;2023-02-13T12:52:30;102620.15;;;11.57;41.16
63663;BME280;49815;51.618;0.336;2023-02-13T12:54:53;102623.21;;;11.38;41.06
63663;BME280;49815;51.618;0.336;2023-02-13T12:57:21;102622.66;;;11.55;40.73
63663;BME280;49815;51.618;0.336;2023-02-13T12:59:49;102620.48;;;11.28;41.21